EDT,Max TemperatureF,Mean TemperatureF,Min TemperatureF,Max Dew PointF,MeanDew PointF,Min DewpointF,Max Humidity, Mean Humidity, Min Humidity, Max Sea Level PressureIn, Mean Sea Level PressureIn, Min Sea Level PressureIn, Max VisibilityMiles, Mean VisibilityMiles, Min VisibilityMiles, Max Wind SpeedMPH, Mean Wind SpeedMPH, Max Gust SpeedMPH,PrecipitationIn, CloudCover, Events, WindDirDegrees
2013-6-1,74,61,48,66,59,48,100,93,73,29.88,29.84,29.76,10,5,0,16,8,22,0.29,7,Fog-Rain,118
2013-6-2,72,61,49,65,60,48,100,96,83,29.77,29.68,29.62,10,3,0,16,7,23,0.85,8,Fog-Rain-Thunderstorm,102
2013-6-3,75,63,51,63,57,43,100,81,42,29.71,29.66,29.63,10,6,0,20,9,25,0.01,5,Fog,223
2013-6-4,57,51,44,43,39,33,93,68,44,29.94,29.75,29.66,10,10,9,28,14,35,0.01,5,Rain,295
2013-6-5,61,51,40,34,31,24,73,48,25,30.09,30.04,29.95,10,10,10,23,13,30,0.00,0,,302
2013-6-6,66,51,36,37,32,28,83,45,26,30.19,30.15,30.10,10,10,10,18,5,23,0.00,0,,299
2013-6-7,63,54,44,50,45,36,89,68,56,30.16,30.12,30.06,10,10,10,10,4,15,T,6,Rain,133
2013-6-8,56,51,46,52,48,43,96,89,77,30.06,29.94,29.86,10,8,3,22,11,31,0.50,8,Rain,59
2013-6-9,55,50,44,49,46,43,100,90,80,30.14,30.05,30.00,10,8,2,10,5,14,0.07,8,Rain,6
2013-6-10,75,57,38,52,45,39,100,76,35,30.17,30.10,30.00,10,7,0,14,5,17,T,2,Fog,261
2013-6-11,65,59,52,56,53,50,97,83,67,29.98,29.86,29.76,10,10,9,13,3,15,0.10,4,Rain,126
2013-6-12,67,59,51,55,47,30,97,70,34,29.79,29.74,29.71,10,10,5,22,9,29,0.05,5,Rain,36
2013-6-13,72,57,42,44,38,32,74,48,31,29.83,29.76,29.71,10,10,10,13,5,21,0.00,0,,355
2013-6-14,75,61,47,55,50,44,100,71,37,29.71,29.67,29.61,10,9,1,22,6,32,0.15,4,Rain-Thunderstorm,347
2013-6-15,68,58,48,50,41,31,94,58,36,29.76,29.71,29.67,10,10,2,25,12,33,0.00,2,,299
2013-6-16,62,52,41,48,39,28,100,69,33,29.87,29.80,29.77,10,8,2,14,6,20,0.36,4,Rain,337
2013-6-17,60,54,48,56,51,46,100,91,82,29.80,29.75,29.72,10,10,5,15,5,18,0.05,8,Rain,113
2013-6-18,64,56,47,48,46,44,100,79,52,29.94,29.87,29.79,10,10,10,21,8,29,T,7,Rain,304
2013-6-19,67,54,41,46,42,39,89,63,37,30.09,30.00,29.93,10,10,10,17,8,22,0.00,2,,318
2013-6-20,73,58,43,49,42,37,83,53,30,30.18,30.13,30.10,10,10,10,17,7,25,0.00,1,,250
2013-6-21,72,62,52,51,41,27,74,49,27,30.18,30.13,30.09,10,10,10,20,8,28,0.00,2,,297
2013-6-22,76,60,43,56,47,30,78,61,40,30.17,30.11,30.02,10,10,10,20,6,24,0.00,0,,244
2013-6-23,78,67,55,61,58,55,100,79,52,30.11,30.02,29.88,10,9,1,15,6,20,0.00,1,,198
2013-6-24,81,71,60,64,61,59,100,83,50,29.88,29.82,29.72,10,6,0,15,6,20,0.00,3,Fog,249
2013-6-25,83,70,57,67,62,57,100,83,49,29.81,29.72,29.60,10,8,0,28,7,38,0.39,5,Fog-Rain-Thunderstorm,192
2013-6-26,58,54,50,55,51,49,100,89,77,29.92,29.85,29.75,10,9,2,16,8,24,0.29,8,Rain,50
2013-6-27,53,50,46,52,48,45,100,95,93,29.99,29.92,29.86,10,5,2,14,8,20,0.60,8,Rain,86
2013-6-28,52,50,47,52,49,45,100,95,92,29.97,29.79,29.68,10,6,1,22,10,32,1.00,8,Rain,75
2013-6-29,63,57,51,63,59,51,100,99,94,29.67,29.61,29.58,10,3,0,16,5,18,0.91,8,Fog-Rain-Thunderstorm,40
2013-6-30,74,66,58,63,58,55,100,91,61,29.91,29.72,29.65,10,5,0,16,5,23,0.13,7,Fog-Rain,235